sensor_id;sensor_type;location;lat;lon;timestamp;pressure;altitude;pressure_sealevel;temperature;humidity
67818;BME280;54614;47.576;7.524;2023-12-20T00:02:08;98847.69;;;22.30;35.92
67818;BME280;54614;47.576;7.524;2023-12-20T00:04:34;98834.03;;;22.25;35.98
67818;BME280;54614;47.576;7.524;2023-12-20T00:07:00;98814.66;;;22.23;36.11
67818;BME280;54614;47.576;7.524;2023-12-20T00:09:27;98818.78;;;22.26;35.84
67818;BME280;54614;47.576;7.524;2023-12-20T00:11:52;98820.44;;;22.27;35.71
67818;BME280;54614;47.576;7.524;2023-12-20T00:14:18;98805.59;;;22.24;35.95
67818;BME280;54614;47.576;7.524;2023-12-20T00:16:44;98824.97;;;22.26;35.57
67818;BME280;54614;47.576;7.524;2023-12-20T00:19:09;98823.50;;;22.24;35.93
67818;BME280;54614;47.576;7.524;2023-12-20T00:21:35;98820.63;;;22.25;35.81
67818;BME280;54614;47.576;7.524;2023-12-20T00:24:01;98821.41;;;22.19;36.21
67818;BME280;54614;47.576;7.524;2023-12-20T00:26:27;98826.38;;;22.22;35.89
67818;BME280;54614;47.576;7.524;2023-12-20T00:28:53;98820.56;;;22.18;36.16
67818;BME280;54614;47.576;7.524;2023-12-20T00:31:19;98810.69;;;22.19;35.98
67818;BME280;54614;47.576;7.524;2023-12-20T00:33:45;98807.00;;;22.20;35.48
67818;BME280;54614;47.576;7.524;2023-12-20T00:36:12;98799.13;;;22.18;35.69
67818;BME280;54614;47.576;7.524;2023-12-20T00:38:38;98805.50;;;22.17;35.95
67818;BME280;54614;47.576;7.524;2023-12-20T00:41:04;98811.06;;;22.16;36.06
67818;BME280;54614;47.576;7.524;2023-12-20T00:43:29;98815.59;;;22.15;35.90
67818;BME280;54614;47.576;7.524;2023-12-20T00:45:55;98813.09;;;22.14;35.76
67818;BME280;54614;47.576;7.524;2023-12-20T00:48:21;98817.81;;;22.12;35.71
67818;BME280;54614;47.576;7.524;2023-12-20T00:50:47;98812.66;;;22.10;35.81
67818;BME280;54614;47.576;7.524;2023-12-20T00:53:13;98802.13;;;22.09;35.78
67818;BME280;54614;47.576;7.524;2023-12-20T00:55:38;98805.63;;;22.09;36.07
67818;BME280;54614;47.576;7.524;2023-12-20T00:58:04;98803.78;;;22.10;35.76
67818;BME280;54614;47.576;7.524;2023-12-20T01:00:30;98809.97;;;22.10;35.60
67818;BME280;54614;47.576;7.524;2023-12-20T01:02:56;98813.69;;;22.09;35.73
67818;BME280;54614;47.576;7.524;2023-12-20T01:05:22;98813.69;;;22.09;36.02
67818;BME280;54614;47.576;7.524;2023-12-20T01:07:50;98806.47;;;22.10;35.85
67818;BME280;54614;47.576;7.524;2023-12-20T01:10:15;98806.84;;;22.07;36.02
67818;BME280;54614;47.576;7.524;2023-12-20T01:12:43;98812.59;;;22.04;35.91
67818;BME280;54614;47.576;7.524;2023-12-20T01:15:10;98807.88;;;22.06;36.02
67818;BME280;54614;47.576;7.524;2023-12-20T01:17:35;98802.69;;;22.04;35.87
67818;BME280;54614;47.576;7.524;2023-12-20T01:20:01;98806.03;;;22.06;36.02
67818;BME280;54614;47.576;7.524;2023-12-20T01:22:27;98816.09;;;22.04;35.77
67818;BME280;54614;47.576;7.524;2023-12-20T01:24:53;98813.41;;;22.04;35.91
67818;BME280;54614;47.576;7.524;2023-12-20T01:27:19;98809.22;;;22.02;35.70
67818;BME280;54614;47.576;7.524;2023-12-20T01:29:44;98814.59;;;22.02;35.97
67818;BME280;54614;47.576;7.524;2023-12-20T01:32:10;98823.31;;;22.04;35.88
67818;BME280;54614;47.576;7.524;2023-12-20T01:34:36;98815.59;;;22.01;35.88
67818;BME280;54614;47.576;7.524;2023-12-20T01:37:02;98825.31;;;22.02;35.71
67818;BME280;54614;47.576;7.524;2023-12-20T01:39:28;98827.97;;;22.02;35.99
67818;BME280;54614;47.576;7.524;2023-12-20T01:41:54;98836.22;;;22.00;35.73
67818;BME280;54614;47.576;7.524;2023-12-20T01:44:20;98835.38;;;22.00;36.10
67818;BME280;54614;47.576;7.524;2023-12-20T01:46:46;98841.75;;;21.99;35.88
67818;BME280;54614;47.576;7.524;2023-12-20T01:49:13;98831.41;;;21.96;36.09
67818;BME280;54614;47.576;7.524;2023-12-20T01:51:39;98828.75;;;21.96;35.80
67818;BME280;54614;47.576;7.524;2023-12-20T01:54:05;98829.75;;;21.95;36.17
67818;BME280;54614;47.576;7.524;2023-12-20T01:56:33;98826.88;;;21.96;35.97
67818;BME280;54614;47.576;7.524;2023-12-20T01:59:01;98827.09;;;21.95;36.18
67818;BME280;54614;47.576;7.524;2023-12-20T02:01:27;98819.22;;;21.93;35.91
67818;BME280;54614;47.576;7.524;2023-12-20T02:03:55;98817.38;;;21.94;36.06
67818;BME280;54614;47.576;7.524;2023-12-20T02:06:23;98819.22;;;21.93;36.07
67818;BME280;54614;47.576;7.524;2023-12-20T02:08:50;98810.38;;;21.93;36.12
67818;BME280;54614;47.576;7.524;2023-12-20T02:11:16;98798.00;;;21.92;36.26
67818;BME280;54614;47.576;7.524;2023-12-20T02:13:42;98800.88;;;21.90;36.23
67818;BME280;54614;47.576;7.524;2023-12-20T02:16:08;98791.16;;;21.89;36.17
67818;BME280;54614;47.576;7.524;2023-12-20T02:18:33;98799.38;;;21.87;36.32
67818;BME280;54614;47.576;7.524;2023-12-20T02:20:59;98798.38;;;21.88;35.88
67818;BME280;54614;47.576;7.524;2023-12-20T02:23:25;98798.38;;;21.88;36.23
67818;BME280;54614;47.576;7.524;2023-12-20T02:25:51;98788.88;;;21.86;35.94
67818;BME280;54614;47.576;7.524;2023-12-20T02:28:17;98795.06;;;21.86;36.00
67818;BME280;54614;47.576;7.524;2023-12-20T02:30:42;98791.53;;;21.86;36.19
67818;BME280;54614;47.576;7.524;2023-12-20T02:33:12;98785.38;;;21.85;36.02
67818;BME280;54614;47.576;7.524;2023-12-20T02:35:38;98775.84;;;21.83;36.25
67818;BME280;54614;47.576;7.524;2023-12-20T02:38:03;98785.56;;;21.84;36.19
67818;BME280;54614;47.576;7.524;2023-12-20T02:40:29;98779.19;;;21.85;35.98
67818;BME280;54614;47.576;7.524;2023-12-20T02:42:55;98773.00;;;21.84;35.94
67818;BME280;54614;47.576;7.524;2023-12-20T02:45:20;98781.41;;;21.81;36.14
67818;BME280;54614;47.576;7.524;2023-12-20T02:47:46;98776.88;;;21.82;36.20
67818;BME280;54614;47.576;7.524;2023-12-20T02:50:12;98773.19;;;21.83;35.91
67818;BME280;54614;47.576;7.524;2023-12-20T02:52:38;98778.91;;;21.80;36.45
67818;BME280;54614;47.576;7.524;2023-12-20T02:55:04;98778.09;;;21.79;36.39
67818;BME280;54614;47.576;7.524;2023-12-20T02:57:30;98781.78;;;21.78;36.13
67818;BME280;54614;47.576;7.524;2023-12-20T02:59:55;98772.72;;;21.79;36.04
67818;BME280;54614;47.576;7.524;2023-12-20T03:02:21;98777.63;;;21.76;36.42
67818;BME280;54614;47.576;7.524;2023-12-20T03:04:47;98773.28;;;21.75;36.25
67818;BME280;54614;47.576;7.524;2023-12-20T03:07:12;98773.84;;;21.70;36.40
67818;BME280;54614;47.576;7.524;2023-12-20T03:09:38;98772.47;;;21.74;36.22
67818;BME280;54614;47.576;7.524;2023-12-20T03:12:04;98777.63;;;21.76;36.19
67818;BME280;54614;47.576;7.524;2023-12-20T03:14:30;98779.28;;;21.77;36.42
67818;BME280;54614;47.576;7.524;2023-12-20T03:16:56;98790.19;;;21.75;36.34
67818;BME280;54614;47.576;7.524;2023-12-20T03:19:21;98790.19;;;21.75;36.17
67818;BME280;54614;47.576;7.524;2023-12-20T03:21:47;98790.19;;;21.75;36.19
67818;BME280;54614;47.576;7.524;2023-12-20T03:24:13;98789.53;;;21.73;36.58
67818;BME280;54614;47.576;7.524;2023-12-20T03:26:39;98785.41;;;21.71;36.03
67818;BME280;54614;47.576;7.524;2023-12-20T03:29:04;98780.88;;;21.71;36.27
67818;BME280;54614;47.576;7.524;2023-12-20T03:31:30;98784.19;;;21.73;36.48
67818;BME280;54614;47.576;7.524;2023-12-20T03:33:56;98779.22;;;21.70;36.39
67818;BME280;54614;47.576;7.524;2023-12-20T03:36:21;98776.72;;;21.69;36.37
67818;BME280;54614;47.576;7.524;2023-12-20T03:38:47;98782.66;;;21.64;36.66
67818;BME280;54614;47.576;7.524;2023-12-20T03:41:13;98784.94;;;21.67;36.60
67818;BME280;54614;47.576;7.524;2023-12-20T03:43:39;98792.16;;;21.67;36.29
67818;BME280;54614;47.576;7.524;2023-12-20T03:46:05;98794.63;;;21.68;36.49
67818;BME280;54614;47.576;7.524;2023-12-20T03:48:31;98793.63;;;21.69;36.31
67818;BME280;54614;47.576;7.524;2023-12-20T03:50:57;98800.38;;;21.65;36.56
67818;BME280;54614;47.576;7.524;2023-12-20T03:53:23;98795.00;;;21.65;36.47
67818;BME280;54614;47.576;7.524;2023-12-20T03:55:48;98796.41;;;21.61;36.38
67818;BME280;54614;47.576;7.524;2023-12-20T03:58:14;98805.72;;;21.65;36.52
67818;BME280;54614;47.576;7.524;2023-12-20T04:00:40;98805.72;;;21.65;36.34
67818;BME280;54614;47.576;7.524;2023-12-20T04:03:06;98804.25;;;21.63;36.54
67818;BME280;54614;47.576;7.524;2023-12-20T04:05:32;98806.09;;;21.62;36.54
67818;BME280;54614;47.576;7.524;2023-12-20T04:08:00;98801.13;;;21.59;36.36
67818;BME280;54614;47.576;7.524;2023-12-20T04:10:26;98801.75;;;21.61;36.28
67818;BME280;54614;47.576;7.524;2023-12-20T04:12:52;98805.91;;;21.64;36.36
67818;BME280;54614;47.576;7.524;2023-12-20T04:15:18;98815.50;;;21.58;36.35
67818;BME280;54614;47.576;7.524;2023-12-20T04:17:43;98811.63;;;21.61;36.67
67818;BME280;54614;47.576;7.524;2023-12-20T04:20:10;98814.31;;;21.61;36.72
67818;BME280;54614;47.576;7.524;2023-12-20T04:22:35;98816.53;;;21.57;36.66
67818;BME280;54614;47.576;7.524;2023-12-20T04:25:01;98823.16;;;21.61;36.37
67818;BME280;54614;47.576;7.524;2023-12-20T04:27:27;98810.34;;;21.57;36.71
67818;BME280;54614;47.576;7.524;2023-12-20T04:29:53;98804.53;;;21.53;36.57
67818;BME280;54614;47.576;7.524;2023-12-20T04:32:19;98798.81;;;21.56;36.61
67818;BME280;54614;47.576;7.524;2023-12-20T04:34:45;98813.66;;;21.59;36.62
67818;BME280;54614;47.576;7.524;2023-12-20T04:37:10;98811.63;;;21.61;36.64
67818;BME280;54614;47.576;7.524;2023-12-20T04:39:36;98826.59;;;21.55;36.75
67818;BME280;54614;47.576;7.524;2023-12-20T04:42:02;98831.94;;;21.55;36.83
67818;BME280;54614;47.576;7.524;2023-12-20T04:44:28;98833.16;;;21.52;36.86
67818;BME280;54614;47.576;7.524;2023-12-20T04:46:53;98826.59;;;21.55;36.54
67818;BME280;54614;47.576;7.524;2023-12-20T04:49:19;98820.50;;;21.46;36.95
67818;BME280;54614;47.576;7.524;2023-12-20T04:51:45;98821.97;;;21.49;36.90
67818;BME280;54614;47.576;7.524;2023-12-20T04:54:11;98831.50;;;21.51;36.55
67818;BME280;54614;47.576;7.524;2023-12-20T04:56:36;98824.94;;;21.54;36.50
67818;BME280;54614;47.576;7.524;2023-12-20T04:59:02;98832.13;;;21.53;36.88
67818;BME280;54614;47.576;7.524;2023-12-20T05:01:28;98826.78;;;21.53;36.74
67818;BME280;54614;47.576;7.524;2023-12-20T05:03:53;98825.94;;;21.53;36.71
67818;BME280;54614;47.576;7.524;2023-12-20T05:06:19;98831.03;;;21.48;36.67
67818;BME280;54614;47.576;7.524;2023-12-20T05:08:45;98814.59;;;21.51;36.66
67818;BME280;54614;47.576;7.524;2023-12-20T05:11:10;98833.16;;;21.52;36.65
67818;BME280;54614;47.576;7.524;2023-12-20T05:13:38;98825.94;;;21.53;36.98
67818;BME280;54614;47.576;7.524;2023-12-20T05:16:05;98841.00;;;21.54;37.15
67818;BME280;54614;47.576;7.524;2023-12-20T05:18:30;98847.34;;;21.53;37.12
67818;BME280;54614;47.576;7.524;2023-12-20T05:20:56;98839.34;;;21.53;38.80
67818;BME280;54614;47.576;7.524;2023-12-20T05:23:22;98838.97;;;21.56;37.23
67818;BME280;54614;47.576;7.524;2023-12-20T05:25:48;98844.97;;;21.58;37.20
67818;BME280;54614;47.576;7.524;2023-12-20T05:28:15;98853.81;;;21.59;37.26
67818;BME280;54614;47.576;7.524;2023-12-20T05:30:40;98864.72;;;21.57;37.47
67818;BME280;54614;47.576;7.524;2023-12-20T05:33:06;98862.03;;;21.57;37.22
67818;BME280;54614;47.576;7.524;2023-12-20T05:35:32;98852.34;;;21.56;37.50
67818;BME280;54614;47.576;7.524;2023-12-20T05:37:58;98862.22;;;21.55;37.79
67818;BME280;54614;47.576;7.524;2023-12-20T05:40:23;98860.19;;;21.58;37.62
67818;BME280;54614;47.576;7.524;2023-12-20T05:42:49;98861.03;;;21.58;37.42
67818;BME280;54614;47.576;7.524;2023-12-20T05:45:15;98862.50;;;21.61;37.71
67818;BME280;54614;47.576;7.524;2023-12-20T05:47:40;98853.00;;;21.58;37.63
67818;BME280;54614;47.576;7.524;2023-12-20T05:50:07;98855.66;;;21.58;37.40
67818;BME280;54614;47.576;7.524;2023-12-20T05:52:33;98855.09;;;21.63;37.48
67818;BME280;54614;47.576;7.524;2023-12-20T05:54:59;98868.41;;;21.56;37.47
67818;BME280;54614;47.576;7.524;2023-12-20T05:57:27;98874.03;;;21.61;37.71
67818;BME280;54614;47.576;7.524;2023-12-20T05:59:53;98877.72;;;21.60;37.50
67818;BME280;54614;47.576;7.524;2023-12-20T06:02:18;98859.53;;;21.55;37.77
67818;BME280;54614;47.576;7.524;2023-12-20T06:04:45;98857.31;;;21.59;37.74
67818;BME280;54614;47.576;7.524;2023-12-20T06:07:15;98859.44;;;21.64;37.72
67818;BME280;54614;47.576;7.524;2023-12-20T06:09:41;98862.75;;;21.66;37.51
67818;BME280;54614;47.576;7.524;2023-12-20T06:12:07;98865.91;;;21.69;37.54
67818;BME280;54614;47.576;7.524;2023-12-20T06:14:34;98864.44;;;21.67;37.54
67818;BME280;54614;47.576;7.524;2023-12-20T06:17:00;98884.00;;;21.67;37.59
67818;BME280;54614;47.576;7.524;2023-12-20T06:19:27;98888.53;;;21.67;37.67
67818;BME280;54614;47.576;7.524;2023-12-20T06:21:52;98891.19;;;21.67;37.86
67818;BME280;54614;47.576;7.524;2023-12-20T06:24:18;98890.19;;;21.68;37.84
67818;BME280;54614;47.576;7.524;2023-12-20T06:26:44;98879.66;;;21.66;37.90
67818;BME280;54614;47.576;7.524;2023-12-20T06:29:10;98865.25;;;21.67;37.86
67818;BME280;54614;47.576;7.524;2023-12-20T06:31:35;98869.59;;;21.68;37.99
67818;BME280;54614;47.576;7.524;2023-12-20T06:34:01;98871.06;;;21.71;38.73
67818;BME280;54614;47.576;7.524;2023-12-20T06:36:27;98879.56;;;21.74;39.46
67818;BME280;54614;47.576;7.524;2023-12-20T06:38:53;98879.47;;;21.82;39.57
67818;BME280;54614;47.576;7.524;2023-12-20T06:41:19;98879.00;;;21.79;38.61
67818;BME280;54614;47.576;7.524;2023-12-20T06:43:45;98879.00;;;21.79;38.51
67818;BME280;54614;47.576;7.524;2023-12-20T06:46:11;98882.31;;;21.81;38.85
67818;BME280;54614;47.576;7.524;2023-12-20T06:48:39;98886.03;;;21.80;38.68
67818;BME280;54614;47.576;7.524;2023-12-20T06:51:05;98887.59;;;21.89;42.01
67818;BME280;54614;47.576;7.524;2023-12-20T06:53:31;98888.41;;;21.90;39.65
67818;BME280;54614;47.576;7.524;2023-12-20T06:55:56;98889.44;;;21.88;38.44
67818;BME280;54614;47.576;7.524;2023-12-20T06:58:23;98893.13;;;21.87;38.68
67818;BME280;54614;47.576;7.524;2023-12-20T07:00:49;98900.13;;;21.88;38.58
67818;BME280;54614;47.576;7.524;2023-12-20T07:03:15;98908.34;;;21.87;38.44
67818;BME280;54614;47.576;7.524;2023-12-20T07:05:42;98906.69;;;21.86;38.42
67818;BME280;54614;47.576;7.524;2023-12-20T07:08:07;98911.88;;;21.87;38.38
67818;BME280;54614;47.576;7.524;2023-12-20T07:10:33;98909.19;;;21.87;38.02
67818;BME280;54614;47.576;7.524;2023-12-20T07:12:59;98919.25;;;21.85;38.02
67818;BME280;54614;47.576;7.524;2023-12-20T07:15:25;98921.94;;;21.85;37.81
67818;BME280;54614;47.576;7.524;2023-12-20T07:17:50;98924.81;;;21.84;37.96
67818;BME280;54614;47.576;7.524;2023-12-20T07:20:16;98921.47;;;21.82;37.76
67818;BME280;54614;47.576;7.524;2023-12-20T07:22:42;98926.84;;;21.82;37.66
67818;BME280;54614;47.576;7.524;2023-12-20T07:25:08;98933.19;;;21.81;37.87
67818;BME280;54614;47.576;7.524;2023-12-20T07:27:34;98938.38;;;21.82;37.77
67818;BME280;54614;47.576;7.524;2023-12-20T07:30:00;98934.03;;;21.81;37.33
67818;BME280;54614;47.576;7.524;2023-12-20T07:32:25;98939.38;;;21.81;37.68
67818;BME280;54614;47.576;7.524;2023-12-20T07:34:51;98932.38;;;21.80;37.64
67818;BME280;54614;47.576;7.524;2023-12-20T07:37:17;98937.09;;;21.78;37.59
67818;BME280;54614;47.576;7.524;2023-12-20T07:39:43;98942.91;;;21.82;38.39
67818;BME280;54614;47.576;7.524;2023-12-20T07:42:09;98946.78;;;21.79;38.29
67818;BME280;54614;47.576;7.524;2023-12-20T07:44:35;98951.13;;;21.80;38.36
67818;BME280;54614;47.576;7.524;2023-12-20T07:47:04;98969.41;;;21.77;38.12
67818;BME280;54614;47.576;7.524;2023-12-20T07:49:31;98970.03;;;21.79;37.78
67818;BME280;54614;47.576;7.524;2023-12-20T07:51:57;98968.38;;;21.78;37.70
67818;BME280;54614;47.576;7.524;2023-12-20T07:54:23;98972.06;;;21.77;37.55
67818;BME280;54614;47.576;7.524;2023-12-20T07:56:49;98984.63;;;21.76;37.36
67818;BME280;54614;47.576;7.524;2023-12-20T07:59:15;98985.81;;;21.74;37.48
67818;BME280;54614;47.576;7.524;2023-12-20T08:01:41;98989.72;;;21.71;37.14
67818;BME280;54614;47.576;7.524;2023-12-20T08:04:08;99000.59;;;21.70;37.49
67818;BME280;54614;47.576;7.524;2023-12-20T08:06:34;98994.22;;;21.71;37.50
67818;BME280;54614;47.576;7.524;2023-12-20T08:08:59;99001.44;;;21.70;37.08
67818;BME280;54614;47.576;7.524;2023-12-20T08:11:25;98991.25;;;21.66;37.19
67818;BME280;54614;47.576;7.524;2023-12-20T08:13:51;98986.28;;;21.63;37.38
67818;BME280;54614;47.576;7.524;2023-12-20T08:16:17;98992.66;;;21.62;37.17
67818;BME280;54614;47.576;7.524;2023-12-20T08:18:43;98994.50;;;21.61;37.53
67818;BME280;54614;47.576;7.524;2023-12-20T08:21:09;98995.50;;;21.60;37.29
67818;BME280;54614;47.576;7.524;2023-12-20T08:23:35;98999.84;;;21.61;37.47
67818;BME280;54614;47.576;7.524;2023-12-20T08:26:05;99008.91;;;21.60;37.12
67818;BME280;54614;47.576;7.524;2023-12-20T08:28:31;99003.72;;;21.59;37.25
67818;BME280;54614;47.576;7.524;2023-12-20T08:30:58;99006.56;;;21.57;38.00
67818;BME280;54614;47.576;7.524;2023-12-20T08:33:24;99005.31;;;21.68;37.44
67818;BME280;54614;47.576;7.524;2023-12-20T08:35:50;99019.06;;;21.65;37.83
67818;BME280;54614;47.576;7.524;2023-12-20T08:38:15;99011.50;;;21.68;37.83
67818;BME280;54614;47.576;7.524;2023-12-20T08:40:43;99020.16;;;21.70;37.32
67818;BME280;54614;47.576;7.524;2023-12-20T08:43:09;99004.09;;;21.70;37.58
67818;BME280;54614;47.576;7.524;2023-12-20T08:45:36;99009.09;;;21.73;37.83
67818;BME280;54614;47.576;7.524;2023-12-20T08:48:02;99002.25;;;21.71;37.49
67818;BME280;54614;47.576;7.524;2023-12-20T08:50:29;99006.78;;;21.70;37.45
67818;BME280;54614;47.576;7.524;2023-12-20T08:52:55;99011.13;;;21.71;37.41
67818;BME280;54614;47.576;7.524;2023-12-20T08:55:21;99022.00;;;21.70;37.29
67818;BME280;54614;47.576;7.524;2023-12-20T08:57:46;99024.50;;;21.71;37.45
67818;BME280;54614;47.576;7.524;2023-12-20T09:00:13;99034.38;;;21.71;37.31
67818;BME280;54614;47.576;7.524;2023-12-20T09:02:39;99031.06;;;21.69;37.27
67818;BME280;54614;47.576;7.524;2023-12-20T09:05:05;99034.56;;;21.69;37.28
67818;BME280;54614;47.576;7.524;2023-12-20T09:07:31;99032.72;;;21.70;37.22
67818;BME280;54614;47.576;7.524;2023-12-20T09:09:58;99046.13;;;21.70;36.72
67818;BME280;54614;47.576;7.524;2023-12-20T09:12:24;99037.91;;;21.71;36.80
67818;BME280;54614;47.576;7.524;2023-12-20T09:14:51;99045.09;;;21.71;37.07
67818;BME280;54614;47.576;7.524;2023-12-20T09:17:18;99045.09;;;21.71;37.08
67818;BME280;54614;47.576;7.524;2023-12-20T09:19:45;99046.94;;;21.70;37.21
67818;BME280;54614;47.576;7.524;2023-12-20T09:22:11;99052.31;;;21.70;36.87
67818;BME280;54614;47.576;7.524;2023-12-20T09:24:37;99040.75;;;21.70;36.98
67818;BME280;54614;47.576;7.524;2023-12-20T09:27:06;99046.13;;;21.70;36.93
67818;BME280;54614;47.576;7.524;2023-12-20T09:29:32;99056.81;;;21.70;37.14
67818;BME280;54614;47.576;7.524;2023-12-20T09:31:58;99053.50;;;21.68;36.90
67818;BME280;54614;47.576;7.524;2023-12-20T09:34:24;99056.00;;;21.69;37.27
67818;BME280;54614;47.576;7.524;2023-12-20T09:36:51;99059.69;;;21.68;37.39
67818;BME280;54614;47.576;7.524;2023-12-20T09:39:19;99065.88;;;21.69;37.44
67818;BME280;54614;47.576;7.524;2023-12-20T09:44:22;99075.56;;;21.70;37.68
67818;BME280;54614;47.576;7.524;2023-12-20T09:46:50;99081.75;;;21.70;37.38
67818;BME280;54614;47.576;7.524;2023-12-20T09:49:18;99070.22;;;21.70;37.42
67818;BME280;54614;47.576;7.524;2023-12-20T09:51:46;99064.19;;;21.68;37.68
67818;BME280;54614;47.576;7.524;2023-12-20T09:54:19;99071.41;;;21.67;36.97
67818;BME280;54614;47.576;7.524;2023-12-20T09:56:46;99058.84;;;21.68;36.88
67818;BME280;54614;47.576;7.524;2023-12-20T09:59:13;99059.88;;;21.67;37.18
67818;BME280;54614;47.576;7.524;2023-12-20T10:01:41;99054.50;;;21.67;37.16
67818;BME280;54614;47.576;7.524;2023-12-20T10:04:10;99056.53;;;21.65;37.34
67818;BME280;54614;47.576;7.524;2023-12-20T10:06:42;99054.69;;;21.65;37.26
67818;BME280;54614;47.576;7.524;2023-12-20T10:09:10;99054.69;;;21.65;37.44
67818;BME280;54614;47.576;7.524;2023-12-20T10:11:37;99052.00;;;21.65;37.39
67818;BME280;54614;47.576;7.524;2023-12-20T10:14:05;99050.34;;;21.64;37.69
67818;BME280;54614;47.576;7.524;2023-12-20T10:16:32;99050.34;;;21.64;37.38
67818;BME280;54614;47.576;7.524;2023-12-20T10:18:59;99043.16;;;21.65;37.26
67818;BME280;54614;47.576;7.524;2023-12-20T10:21:26;99040.28;;;21.66;37.71
67818;BME280;54614;47.576;7.524;2023-12-20T10:23:54;99027.91;;;21.65;37.48
67818;BME280;54614;47.576;7.524;2023-12-20T10:26:21;99029.59;;;21.66;37.40
67818;BME280;54614;47.576;7.524;2023-12-20T10:28:55;99015.38;;;21.66;37.29
67818;BME280;54614;47.576;7.524;2023-12-20T10:31:28;99027.72;;;21.67;37.46
67818;BME280;54614;47.576;7.524;2023-12-20T10:34:00;99021.19;;;21.69;37.60
67818;BME280;54614;47.576;7.524;2023-12-20T10:36:28;99032.53;;;21.71;38.14
67818;BME280;54614;47.576;7.524;2023-12-20T10:38:56;99027.19;;;21.71;37.81
67818;BME280;54614;47.576;7.524;2023-12-20T10:41:28;99014.44;;;21.73;38.01
67818;BME280;54614;47.576;7.524;2023-12-20T10:44:03;99018.97;;;21.73;38.13
67818;BME280;54614;47.576;7.524;2023-12-20T10:46:30;99010.75;;;21.74;37.92
67818;BME280;54614;47.576;7.524;2023-12-20T10:48:58;99015.75;;;21.77;38.18
67818;BME280;54614;47.576;7.524;2023-12-20T10:51:25;99012.88;;;21.79;37.97
67818;BME280;54614;47.576;7.524;2023-12-20T10:53:56;99019.06;;;21.79;37.69
67818;BME280;54614;47.576;7.524;2023-12-20T10:56:22;99009.00;;;21.81;37.91
67818;BME280;54614;47.576;7.524;2023-12-20T10:58:51;99011.31;;;21.84;37.72
67818;BME280;54614;47.576;7.524;2023-12-20T11:01:19;99013.00;;;21.85;38.01
67818;BME280;54614;47.576;7.524;2023-12-20T11:03:52;99010.97;;;21.87;38.14
67818;BME280;54614;47.576;7.524;2023-12-20T11:06:54;99010.78;;;21.89;37.90
67818;BME280;54614;47.576;7.524;2023-12-20T11:09:31;99003.19;;;21.93;37.86
67818;BME280;54614;47.576;7.524;2023-12-20T11:17:09;99018.81;;;21.89;38.21
67818;BME280;54614;47.576;7.524;2023-12-20T11:22:26;99016.41;;;21.94;38.54
67818;BME280;54614;47.576;7.524;2023-12-20T11:24:53;99011.41;;;21.91;38.27
67818;BME280;54614;47.576;7.524;2023-12-20T11:27:19;99022.59;;;21.95;38.47
67818;BME280;54614;47.576;7.524;2023-12-20T11:29:53;99016.22;;;21.96;38.59
67818;BME280;54614;47.576;7.524;2023-12-20T11:35:00;99030.91;;;22.00;38.74
67818;BME280;54614;47.576;7.524;2023-12-20T11:37:36;99029.91;;;22.01;38.44
67818;BME280;54614;47.576;7.524;2023-12-20T11:40:08;99034.91;;;22.04;38.56
67818;BME280;54614;47.576;7.524;2023-12-20T11:42:45;99036.22;;;22.08;39.14
67818;BME280;54614;47.576;7.524;2023-12-20T11:45:16;99024.94;;;22.12;38.92
67818;BME280;54614;47.576;7.524;2023-12-20T11:47:46;99024.19;;;22.18;39.07
67818;BME280;54614;47.576;7.524;2023-12-20T11:50:13;99013.31;;;22.20;39.35
67818;BME280;54614;47.576;7.524;2023-12-20T11:52:38;99019.94;;;22.24;39.89
67818;BME280;54614;47.576;7.524;2023-12-20T11:55:04;99020.41;;;22.28;39.77
67818;BME280;54614;47.576;7.524;2023-12-20T11:57:31;99008.75;;;22.35;39.79
67818;BME280;54614;47.576;7.524;2023-12-20T11:59:57;99008.56;;;22.37;39.86
67818;BME280;54614;47.576;7.524;2023-12-20T12:02:23;99011.53;;;22.42;39.56
67818;BME280;54614;47.576;7.524;2023-12-20T12:04:50;99022.50;;;22.47;39.41
67818;BME280;54614;47.576;7.524;2023-12-20T12:07:18;99025.84;;;22.49;39.20
67818;BME280;54614;47.576;7.524;2023-12-20T12:09:45;99025.66;;;22.50;38.99
67818;BME280;54614;47.576;7.524;2023-12-20T12:12:12;99016.41;;;22.53;39.06
67818;BME280;54614;47.576;7.524;2023-12-20T12:14:39;99012.88;;;22.52;38.80
67818;BME280;54614;47.576;7.524;2023-12-20T12:17:11;99021.38;;;22.56;38.64
67818;BME280;54614;47.576;7.524;2023-12-20T12:19:38;99020.03;;;22.45;38.78
67818;BME280;54614;47.576;7.524;2023-12-20T12:24:33;99023.16;;;22.49;38.83
67818;BME280;54614;47.576;7.524;2023-12-20T12:26:59;99024.09;;;22.41;38.69
67818;BME280;54614;47.576;7.524;2023-12-20T12:29:24;99023.06;;;22.42;38.84
67818;BME280;54614;47.576;7.524;2023-12-20T12:31:51;99037.31;;;22.43;38.53
67818;BME280;54614;47.576;7.524;2023-12-20T12:34:18;99032.78;;;22.43;38.75
67818;BME280;54614;47.576;7.524;2023-12-20T12:36:44;99036.47;;;22.42;39.05
67818;BME280;54614;47.576;7.524;2023-12-20T12:39:12;99046.19;;;22.43;38.94
67818;BME280;54614;47.576;7.524;2023-12-20T12:41:41;99051.53;;;22.43;38.98
67818;BME280;54614;47.576;7.524;2023-12-20T12:44:07;99051.16;;;22.46;38.94
67818;BME280;54614;47.576;7.524;2023-12-20T12:46:32;99046.81;;;22.45;38.89
67818;BME280;54614;47.576;7.524;2023-12-20T12:48:58;99058.75;;;22.43;38.57
67818;BME280;54614;47.576;7.524;2023-12-20T12:51:24;99063.09;;;22.44;38.33
67818;BME280;54614;47.576;7.524;2023-12-20T12:53:50;99056.44;;;22.40;38.33
67818;BME280;54614;47.576;7.524;2023-12-20T12:56:15;99054.13;;;22.37;38.60
67818;BME280;54614;47.576;7.524;2023-12-20T12:58:42;99054.78;;;22.39;38.28
67818;BME280;54614;47.576;7.524;2023-12-20T13:01:08;99060.13;;;22.39;37.84
67818;BME280;54614;47.576;7.524;2023-12-20T13:03:35;99058.66;;;22.36;37.98
67818;BME280;54614;47.576;7.524;2023-12-20T13:06:01;99065.03;;;22.35;37.88
67818;BME280;54614;47.576;7.524;2023-12-20T13:08:28;99050.63;;;22.36;37.87
67818;BME280;54614;47.576;7.524;2023-12-20T13:10:54;99052.28;;;22.37;37.39
67818;BME280;54614;47.576;7.524;2023-12-20T13:13:21;99054.50;;;22.34;37.74